Time,TemperatureF,DewpointF,PressureIn,WindDirection,WindDirectionDegrees,WindSpeedMPH,WindSpeedGustMPH,Humidity,HourlyPrecipIn,Conditions,Clouds,dailyrainin,SoftwareType,DateUTC
2013-04-10 00:00:00,22.4,22.4,30.07,North,359,22.0,31.0,100,0.00,,,0.00,VWS V14.01,2013-04-10 05:00:00,
2013-04-10 00:05:00,22.2,22.2,30.10,North,359,16.0,27.0,100,0.00,,,0.00,VWS V14.01,2013-04-10 05:05:00,
2013-04-10 00:10:00,22.4,22.4,30.10,North,354,30.0,30.0,100,0.00,,,0.00,VWS V14.01,2013-04-10 05:10:00,
2013-04-10 00:15:00,23.2,23.2,30.10,North,359,21.0,30.0,100,0.00,,,0.00,VWS V14.01,2013-04-10 05:15:00,
2013-04-10 00:20:00,23.2,23.2,30.08,North,350,19.0,28.0,100,0.00,,,0.00,VWS V14.01,2013-04-10 05:20:00,
2013-04-10 00:25:00,23.3,23.3,30.08,North,350,22.0,32.0,100,0.00,,,0.00,VWS V14.01,2013-04-10 05:25:00,
2013-04-10 00:30:00,23.2,23.2,30.08,North,0,10.0,32.0,100,0.00,,,0.00,VWS V14.01,2013-04-10 05:30:00,
2013-04-10 00:35:00,22.7,22.7,30.14,NNW,343,12.0,17.0,100,0.00,,,0.00,VWS V14.01,2013-04-10 05:35:00,
2013-04-10 00:40:00,22.7,22.7,30.14,North,359,21.0,24.0,100,0.00,,,0.00,VWS V14.01,2013-04-10 05:40:00,
2013-04-10 00:45:00,23.9,23.9,30.14,North,10,11.0,24.0,100,0.00,,,0.00,VWS V14.01,2013-04-10 05:45:00,
2013-04-10 00:50:00,23.6,23.6,30.12,North,0,21.0,27.0,100,0.00,,,0.00,VWS V14.01,2013-04-10 05:50:00,
2013-04-10 00:55:00,24.2,24.2,30.12,North,3,12.0,28.0,100,0.00,,,0.00,VWS V14.01,2013-04-10 05:55:00,
2013-04-10 01:00:00,23.8,23.8,30.12,North,354,27.0,30.0,100,0.00,,,0.00,VWS V14.01,2013-04-10 06:00:00,
2013-04-10 01:05:00,23.8,23.8,30.11,North,354,24.0,29.0,100,0.00,,,0.00,VWS V14.01,2013-04-10 06:05:00,
2013-04-10 01:10:00,23.5,23.5,30.11,North,359,27.0,30.0,100,0.00,,,0.00,VWS V14.01,2013-04-10 06:10:00,
2013-04-10 01:15:00,23.5,23.5,30.11,North,8,17.0,30.0,100,0.00,,,0.00,VWS V14.01,2013-04-10 06:15:00,
2013-04-10 01:20:00,23.8,23.8,30.10,North,350,24.0,28.0,100,0.00,,,0.00,VWS V14.01,2013-04-10 06:20:00,
2013-04-10 01:26:00,23.6,23.6,30.10,North,0,24.0,29.0,100,0.00,,,0.00,VWS V14.01,2013-04-10 06:26:00,
2013-04-10 01:30:00,22.9,22.9,30.14,North,0,11.0,32.0,100,0.00,,,0.00,VWS V14.01,2013-04-10 06:30:00,
2013-04-10 01:31:00,23.5,23.5,30.10,North,359,24.0,29.0,100,0.00,,,0.00,VWS V14.01,2013-04-10 06:31:00,
2013-04-10 01:35:00,23.8,23.8,30.12,North,0,18.0,27.0,100,0.00,,,0.00,VWS V14.01,2013-04-10 06:35:00,
2013-04-10 01:40:00,23.9,23.9,30.12,North,0,19.0,28.0,100,0.00,,,0.00,VWS V14.01,2013-04-10 06:40:00,
2013-04-10 01:45:00,23.5,23.5,30.12,North,0,21.0,26.0,100,0.00,,,0.00,VWS V14.01,2013-04-10 06:45:00,
2013-04-10 01:46:00,23.9,23.9,30.12,North,352,14.0,28.0,100,0.00,,,0.00,VWS V14.01,2013-04-10 06:46:00,
2013-04-10 01:50:00,23.2,23.2,30.12,North,350,24.0,29.0,100,0.00,,,0.00,VWS V14.01,2013-04-10 06:50:00,
2013-04-10 01:55:00,23.2,23.2,30.12,NNW,346,10.0,29.0,100,0.00,,,0.00,VWS V14.01,2013-04-10 06:55:00,
2013-04-10 02:00:00,23.9,23.9,30.12,North,359,16.0,29.0,100,0.00,,,0.00,VWS V14.01,2013-04-10 07:00:00,
2013-04-10 02:05:00,23.6,23.6,30.08,North,352,22.0,24.0,100,0.00,,,0.00,VWS V14.01,2013-04-10 07:05:00,
2013-04-10 02:10:00,23.0,23.0,30.08,North,4,24.0,30.0,100,0.00,,,0.00,VWS V14.01,2013-04-10 07:10:00,
2013-04-10 02:15:00,23.6,23.6,30.08,North,359,22.0,30.0,100,0.00,,,0.00,VWS V14.01,2013-04-10 07:15:00,
2013-04-10 02:20:00,23.0,23.0,30.05,North,359,25.0,31.0,100,0.00,,,0.00,VWS V14.01,2013-04-10 07:20:00,
2013-04-10 02:26:00,23.0,23.0,30.05,North,356,21.0,31.0,100,0.00,,,0.00,VWS V14.01,2013-04-10 07:26:00,
2013-04-10 02:30:00,23.3,23.3,30.12,NNW,336,22.0,29.0,100,0.00,,,0.00,VWS V14.01,2013-04-10 07:30:00,
2013-04-10 02:31:00,22.9,22.9,30.05,North,353,22.0,31.0,100,0.00,,,0.00,VWS V14.01,2013-04-10 07:31:00,
2013-04-10 02:35:00,23.3,23.3,30.10,NNW,339,16.0,28.0,100,0.00,,,0.00,VWS V14.01,2013-04-10 07:35:00,
2013-04-10 02:40:00,22.9,22.9,30.10,North,356,28.0,28.0,100,0.00,,,0.00,VWS V14.01,2013-04-10 07:40:00,
2013-04-10 02:45:00,23.0,23.0,30.10,North,354,20.0,28.0,100,0.00,,,0.00,VWS V14.01,2013-04-10 07:45:00,
2013-04-10 02:51:00,23.0,23.0,30.12,North,352,17.0,26.0,100,0.00,,,0.00,VWS V14.01,2013-04-10 07:51:00,
2013-04-10 02:56:00,23.8,23.8,30.12,North,357,34.0,34.0,100,0.00,,,0.00,VWS V14.01,2013-04-10 07:56:00,
2013-04-10 03:00:00,24.2,24.2,30.08,North,0,24.0,29.0,100,0.00,,,0.00,VWS V14.01,2013-04-10 08:00:00,
2013-04-10 03:01:00,23.2,23.2,30.12,North,352,16.0,34.0,100,0.00,,,0.00,VWS V14.01,2013-04-10 08:01:00,
2013-04-10 03:06:00,23.5,23.5,30.09,North,0,22.0,28.0,100,0.00,,,0.00,VWS V14.01,2013-04-10 08:06:00,
2013-04-10 03:11:00,23.0,23.0,30.09,North,359,16.0,28.0,100,0.00,,,0.00,VWS V14.01,2013-04-10 08:11:00,
2013-04-10 03:15:00,23.8,23.8,30.05,North,359,20.0,30.0,100,0.00,,,0.00,VWS V14.01,2013-04-10 08:15:00,
2013-04-10 03:16:00,23.3,23.3,30.09,North,359,21.0,30.0,100,0.00,,,0.00,VWS V14.01,2013-04-10 08:16:00,
2013-04-10 03:21:00,23.5,23.5,30.06,NNE,17,19.0,30.0,100,0.00,,,0.00,VWS V14.01,2013-04-10 08:21:00,
2013-04-10 03:26:00,23.3,23.3,30.06,North,6,17.0,30.0,100,0.00,,,0.00,VWS V14.01,2013-04-10 08:26:00,
2013-04-10 03:30:00,23.2,23.2,30.10,North,357,17.0,31.0,100,0.00,,,0.00,VWS V14.01,2013-04-10 08:30:00,
2013-04-10 03:31:00,23.6,23.6,30.06,North,352,16.0,30.0,100,0.00,,,0.00,VWS V14.01,2013-04-10 08:31:00,
2013-04-10 03:36:00,23.6,23.6,30.12,North,352,13.0,21.0,100,0.00,,,0.00,VWS V14.01,2013-04-10 08:36:00,
2013-04-10 03:41:00,23.5,23.5,30.12,North,11,17.0,22.0,100,0.00,,,0.00,VWS V14.01,2013-04-10 08:41:00,
2013-04-10 03:45:00,22.9,22.9,30.12,North,353,25.0,28.0,100,0.00,,,0.00,VWS V14.01,2013-04-10 08:45:00,
2013-04-10 03:46:00,24.4,24.4,30.12,North,352,18.0,24.0,100,0.00,,,0.00,VWS V14.01,2013-04-10 08:46:00,
2013-04-10 03:51:00,23.8,23.8,30.07,North,352,14.0,28.0,100,0.00,,,0.00,VWS V14.01,2013-04-10 08:51:00,
2013-04-10 03:56:00,23.9,23.9,30.07,North,356,22.0,28.0,100,0.00,,,0.00,VWS V14.01,2013-04-10 08:56:00,
2013-04-10 04:00:00,23.3,23.3,30.09,North,359,22.0,34.0,100,0.00,,,0.00,VWS V14.01,2013-04-10 09:00:00,
2013-04-10 04:01:00,23.9,23.9,30.07,NNE,23,20.0,28.0,100,0.00,,,0.00,VWS V14.01,2013-04-10 09:01:00,
2013-04-10 04:06:00,23.6,23.6,30.10,North,352,14.0,28.0,100,0.00,,,0.00,VWS V14.01,2013-04-10 09:06:00,
2013-04-10 04:11:00,23.9,23.9,30.10,North,352,19.0,28.0,100,0.00,,,0.00,VWS V14.01,2013-04-10 09:11:00,
2013-04-10 04:15:00,23.3,23.3,30.06,North,349,22.0,30.0,100,0.00,,,0.00,VWS V14.01,2013-04-10 09:15:00,
2013-04-10 04:16:00,23.8,23.8,30.10,North,354,18.0,28.0,100,0.00,,,0.00,VWS V14.01,2013-04-10 09:16:00,
2013-04-10 04:21:00,23.3,23.3,30.11,North,4,18.0,25.0,100,0.00,,,0.00,VWS V14.01,2013-04-10 09:21:00,
2013-04-10 04:26:00,23.6,23.6,30.11,NNE,24,16.0,25.0,100,0.00,,,0.00,VWS V14.01,2013-04-10 09:26:00,
2013-04-10 04:30:00,23.8,23.8,30.12,North,4,12.0,30.0,100,0.00,,,0.00,VWS V14.01,2013-04-10 09:30:00,
2013-04-10 04:31:00,23.6,23.6,30.11,NNE,21,17.0,28.0,100,0.00,,,0.00,VWS V14.01,2013-04-10 09:31:00,
2013-04-10 04:36:00,23.5,23.5,30.08,North,0,16.0,27.0,100,0.00,,,0.00,VWS V14.01,2013-04-10 09:36:00,
2013-04-10 04:41:00,23.8,23.8,30.08,North,3,21.0,27.0,100,0.00,,,0.00,VWS V14.01,2013-04-10 09:41:00,
2013-04-10 04:45:00,24.1,24.1,30.07,NNE,23,19.0,24.0,100,0.00,,,0.00,VWS V14.01,2013-04-10 09:45:00,
2013-04-10 04:46:00,23.5,23.5,30.08,North,3,17.0,27.0,100,0.00,,,0.00,VWS V14.01,2013-04-10 09:46:00,
2013-04-10 04:50:00,23.2,23.2,30.08,North,352,19.0,26.0,100,0.00,,,0.00,VWS V14.01,2013-04-10 09:50:00,
2013-04-10 04:56:00,23.5,23.5,30.08,North,354,12.0,26.0,100,0.00,,,0.00,VWS V14.01,2013-04-10 09:56:00,
2013-04-10 05:00:00,23.3,23.3,30.08,North,359,19.0,26.0,100,0.00,,,0.00,VWS V14.01,2013-04-10 10:00:00,
2013-04-10 05:05:00,23.3,23.3,30.08,NNW,347,20.0,26.0,100,0.00,,,0.00,VWS V14.01,2013-04-10 10:05:00,
2013-04-10 05:10:00,23.2,23.2,30.08,North,350,22.0,27.0,100,0.00,,,0.00,VWS V14.01,2013-04-10 10:10:00,
2013-04-10 05:15:00,23.5,23.5,30.08,North,352,20.0,27.0,100,0.00,,,0.00,VWS V14.01,2013-04-10 10:15:00,
2013-04-10 05:21:00,23.0,23.0,30.02,North,357,19.0,30.0,100,0.00,,,0.00,VWS V14.01,2013-04-10 10:21:00,
2013-04-10 05:26:00,23.6,23.6,30.02,North,359,19.0,30.0,100,0.00,,,0.00,VWS V14.01,2013-04-10 10:26:00,
2013-04-10 05:30:00,23.6,23.6,30.08,North,359,26.0,28.0,100,0.00,,,0.00,VWS V14.01,2013-04-10 10:30:00,
2013-04-10 05:31:00,23.6,23.6,30.02,North,352,24.0,30.0,100,0.00,,,0.00,VWS V14.01,2013-04-10 10:31:00,
2013-04-10 05:36:00,23.2,23.2,30.04,North,11,14.0,24.0,100,0.00,,,0.00,VWS V14.01,2013-04-10 10:36:00,
2013-04-10 05:41:00,23.2,23.2,30.04,North,353,21.0,24.0,100,0.00,,,0.00,VWS V14.01,2013-04-10 10:41:00,
2013-04-10 05:45:00,23.9,23.9,30.08,North,350,14.0,27.0,100,0.00,,,0.00,VWS V14.01,2013-04-10 10:45:00,
2013-04-10 05:46:00,23.2,23.2,30.04,North,359,19.0,26.0,100,0.00,,,0.00,VWS V14.01,2013-04-10 10:46:00,
2013-04-10 05:51:00,23.2,23.2,30.07,NNW,344,19.0,21.0,100,0.00,,,0.00,VWS V14.01,2013-04-10 10:51:00,
2013-04-10 05:56:00,22.9,22.9,30.07,North,359,24.0,26.0,100,0.00,,,0.00,VWS V14.01,2013-04-10 10:56:00,
2013-04-10 06:00:00,23.2,23.2,30.08,North,3,14.0,26.0,100,0.00,,,0.00,VWS V14.01,2013-04-10 11:00:00,
2013-04-10 06:01:00,23.2,23.2,30.07,North,0,25.0,26.0,100,0.00,,,0.00,VWS V14.01,2013-04-10 11:01:00,
2013-04-10 06:06:00,22.9,22.9,30.07,North,353,19.0,26.0,100,0.00,,,0.00,VWS V14.01,2013-04-10 11:06:00,
2013-04-10 06:11:00,23.3,23.3,30.07,North,359,19.0,26.0,100,0.00,,,0.00,VWS V14.01,2013-04-10 11:11:00,
2013-04-10 06:15:00,23.2,23.2,30.02,North,352,28.0,33.0,100,0.00,,,0.00,VWS V14.01,2013-04-10 11:15:00,
2013-04-10 06:16:00,23.3,23.3,30.07,North,352,18.0,26.0,100,0.00,,,0.00,VWS V14.01,2013-04-10 11:16:00,
2013-04-10 06:21:00,23.2,23.2,30.08,SSE,164,18.0,26.0,100,0.00,,,0.00,VWS V14.01,2013-04-10 11:21:00,
2013-04-10 06:26:00,23.3,23.3,30.08,North,356,20.0,26.0,100,0.00,,,0.00,VWS V14.01,2013-04-10 11:26:00,
2013-04-10 06:30:00,23.8,23.8,30.04,North,10,14.0,30.0,100,0.00,,,0.00,VWS V14.01,2013-04-10 11:30:00,
2013-04-10 06:31:00,23.3,23.3,30.08,North,357,17.0,26.0,100,0.00,,,0.00,VWS V14.01,2013-04-10 11:31:00,
2013-04-10 06:36:00,22.9,22.9,30.08,North,352,14.0,24.0,100,0.00,,,0.00,VWS V14.01,2013-04-10 11:36:00,
2013-04-10 06:41:00,22.9,22.9,30.08,North,357,15.0,24.0,100,0.00,,,0.00,VWS V14.01,2013-04-10 11:41:00,
2013-04-10 06:45:00,23.3,23.3,30.07,NNW,347,17.0,26.0,100,0.00,,,0.00,VWS V14.01,2013-04-10 11:45:00,
2013-04-10 06:46:00,23.2,23.2,30.08,North,357,10.0,24.0,100,0.00,,,0.00,VWS V14.01,2013-04-10 11:46:00,
2013-04-10 06:51:00,23.2,23.2,30.12,North,0,13.0,17.0,100,0.00,,,0.00,VWS V14.01,2013-04-10 11:51:00,
2013-04-10 06:56:00,22.9,22.9,30.12,North,359,14.0,21.0,100,0.00,,,0.00,VWS V14.01,2013-04-10 11:56:00,
2013-04-10 07:00:00,22.9,22.9,30.07,North,359,21.0,26.0,100,0.00,,,0.00,VWS V14.01,2013-04-10 12:00:00,
2013-04-10 07:01:00,22.9,22.9,30.12,North,359,18.0,21.0,100,0.00,,,0.00,VWS V14.01,2013-04-10 12:01:00,
2013-04-10 07:06:00,23.0,23.0,30.08,North,359,21.0,26.0,100,0.00,,,0.00,VWS V14.01,2013-04-10 12:06:00,
2013-04-10 07:11:00,22.9,22.9,30.08,North,1,21.0,26.0,100,0.00,,,0.00,VWS V14.01,2013-04-10 12:11:00,
2013-04-10 07:15:00,23.2,23.2,30.08,North,0,20.0,26.0,100,0.00,,,0.00,VWS V14.01,2013-04-10 12:15:00,
2013-04-10 07:16:00,23.2,23.2,30.08,North,352,17.0,26.0,100,0.00,,,0.00,VWS V14.01,2013-04-10 12:16:00,
2013-04-10 07:21:00,23.2,23.2,30.10,North,359,21.0,28.0,100,0.00,,,0.00,VWS V14.01,2013-04-10 12:21:00,
2013-04-10 07:26:00,23.2,23.2,30.10,North,352,22.0,28.0,100,0.00,,,0.00,VWS V14.01,2013-04-10 12:26:00,
2013-04-10 07:30:00,23.2,23.2,30.08,North,357,17.0,26.0,100,0.00,,,0.00,VWS V14.01,2013-04-10 12:30:00,
2013-04-10 07:31:00,23.3,23.3,30.08,North,3,19.0,28.0,100,0.00,,,0.00,VWS V14.01,2013-04-10 12:31:00,
2013-04-10 07:36:00,22.9,22.9,30.08,North,350,19.0,30.0,100,0.00,,,0.00,VWS V14.01,2013-04-10 12:36:00,
2013-04-10 07:41:00,22.9,22.9,30.08,North,359,19.0,30.0,100,0.00,,,0.00,VWS V14.01,2013-04-10 12:41:00,
2013-04-10 07:45:00,22.9,22.9,30.12,North,354,17.0,24.0,100,0.00,,,0.00,VWS V14.01,2013-04-10 12:45:00,
2013-04-10 07:46:00,22.4,22.4,30.09,North,359,14.0,30.0,100,0.00,,,0.00,VWS V14.01,2013-04-10 12:46:00,
2013-04-10 07:51:00,22.1,22.1,30.09,North,356,18.0,24.0,100,0.00,,,0.00,VWS V14.01,2013-04-10 12:51:00,
2013-04-10 07:56:00,22.7,22.7,30.09,North,0,14.0,24.0,100,0.00,,,0.00,VWS V14.01,2013-04-10 12:56:00,
2013-04-10 08:00:00,23.0,23.0,30.08,North,359,22.0,24.0,100,0.00,,,0.00,VWS V14.01,2013-04-10 13:00:00,
2013-04-10 08:01:00,21.9,21.9,30.09,NW,320,7.0,27.0,100,0.00,,,0.00,VWS V14.01,2013-04-10 13:01:00,
2013-04-10 08:06:00,22.1,22.1,30.09,North,350,5.0,24.0,100,0.00,,,0.00,VWS V14.01,2013-04-10 13:06:00,
2013-04-10 08:11:00,21.9,21.9,30.09,North,356,14.0,24.0,100,0.00,,,0.00,VWS V14.01,2013-04-10 13:11:00,
2013-04-10 08:15:00,23.2,23.2,30.10,North,356,19.0,26.0,100,0.00,,,0.00,VWS V14.01,2013-04-10 13:15:00,
2013-04-10 08:17:00,22.1,21.9,30.09,North,356,17.0,24.0,99,0.00,,,0.00,VWS V14.01,2013-04-10 13:17:00,
2013-04-10 08:21:00,22.2,22.2,30.09,North,352,9.0,17.0,100,0.00,,,0.00,VWS V14.01,2013-04-10 13:21:00,
2013-04-10 08:27:00,22.4,22.4,30.09,North,352,20.0,22.0,100,0.00,,,0.00,VWS V14.01,2013-04-10 13:27:00,
2013-04-10 08:30:00,23.0,23.0,30.08,North,0,26.0,28.0,100,0.00,,,0.00,VWS V14.01,2013-04-10 13:30:00,
2013-04-10 08:32:00,22.5,22.5,30.10,North,359,12.0,24.0,100,0.00,,,0.00,VWS V14.01,2013-04-10 13:32:00,
2013-04-10 08:37:00,22.5,22.5,30.10,North,354,20.0,20.0,100,0.00,,,0.00,VWS V14.01,2013-04-10 13:37:00,
2013-04-10 08:42:00,22.2,22.2,30.10,North,359,11.0,21.0,100,0.00,,,0.00,VWS V14.01,2013-04-10 13:42:00,
2013-04-10 08:45:00,22.4,22.4,30.09,North,356,20.0,30.0,100,0.00,,,0.00,VWS V14.01,2013-04-10 13:45:00,
2013-04-10 08:47:00,22.5,22.5,30.10,North,353,14.0,21.0,100,0.00,,,0.00,VWS V14.01,2013-04-10 13:47:00,
2013-04-10 08:52:00,22.9,22.9,30.10,North,353,18.0,25.0,100,0.00,,,0.00,VWS V14.01,2013-04-10 13:52:00,
2013-04-10 08:57:00,22.7,22.7,30.10,North,359,24.0,25.0,100,0.00,,,0.00,VWS V14.01,2013-04-10 13:57:00,
2013-04-10 09:00:00,21.8,21.8,30.09,North,354,16.0,27.0,100,0.00,,,0.00,VWS V14.01,2013-04-10 14:00:00,
2013-04-10 09:02:00,22.7,22.7,30.11,North,356,13.0,25.0,100,0.00,,,0.00,VWS V14.01,2013-04-10 14:02:00,
2013-04-10 09:07:00,22.4,22.4,30.11,North,359,22.0,24.0,100,0.00,,,0.00,VWS V14.01,2013-04-10 14:07:00,
2013-04-10 09:12:00,22.9,22.9,30.11,North,359,16.0,25.0,100,0.00,,,0.00,VWS V14.01,2013-04-10 14:12:00,
2013-04-10 09:15:00,21.9,21.9,30.09,North,353,8.0,24.0,100,0.00,,,0.00,VWS V14.01,2013-04-10 14:15:00,
2013-04-10 09:17:00,23.2,23.2,30.11,North,359,21.0,26.0,100,0.00,,,0.00,VWS V14.01,2013-04-10 14:17:00,
2013-04-10 09:22:00,22.7,22.7,30.11,North,3,18.0,22.0,100,0.00,,,0.00,VWS V14.01,2013-04-10 14:22:00,
2013-04-10 09:27:00,22.7,22.7,30.11,North,359,19.0,22.0,100,0.00,,,0.00,VWS V14.01,2013-04-10 14:27:00,
2013-04-10 09:30:00,22.7,22.7,30.10,North,0,17.0,24.0,100,0.00,,,0.00,VWS V14.01,2013-04-10 14:30:00,
2013-04-10 09:32:00,22.9,22.9,30.10,NNW,340,11.0,25.0,100,0.00,,,0.00,VWS V14.01,2013-04-10 14:32:00,
2013-04-10 09:37:00,22.9,22.9,30.10,North,359,20.0,25.0,100,0.00,,,0.00,VWS V14.01,2013-04-10 14:37:00,
2013-04-10 09:42:00,22.5,22.5,30.10,North,359,17.0,27.0,100,0.00,,,0.00,VWS V14.01,2013-04-10 14:42:00,
2013-04-10 09:45:00,22.5,22.5,30.10,North,353,11.0,21.0,100,0.00,,,0.00,VWS V14.01,2013-04-10 14:45:00,
2013-04-10 09:47:00,22.9,22.9,30.09,North,352,17.0,27.0,100,0.00,,,0.00,VWS V14.01,2013-04-10 14:47:00,
2013-04-10 09:52:00,22.9,22.9,30.09,North,350,14.0,20.0,100,0.00,,,0.00,VWS V14.01,2013-04-10 14:52:00,
2013-04-10 09:57:00,22.5,22.5,30.09,NNW,328,14.0,26.0,100,0.00,,,0.00,VWS V14.01,2013-04-10 14:57:00,
2013-04-10 10:00:00,22.7,22.7,30.11,North,359,19.0,25.0,100,0.00,,,0.00,VWS V14.01,2013-04-10 15:00:00,
2013-04-10 10:02:00,22.5,22.5,30.10,NNW,342,13.0,26.0,100,0.00,,,0.00,VWS V14.01,2013-04-10 15:02:00,
2013-04-10 10:07:00,23.2,23.2,30.10,North,0,21.0,27.0,100,0.00,,,0.00,VWS V14.01,2013-04-10 15:07:00,
2013-04-10 10:12:00,23.6,23.6,30.10,North,354,24.0,27.0,100,0.00,,,0.00,VWS V14.01,2013-04-10 15:12:00,
2013-04-10 10:15:00,23.2,23.2,30.11,North,359,18.0,26.0,100,0.00,,,0.00,VWS V14.01,2013-04-10 15:15:00,
2013-04-10 10:17:00,23.6,23.6,30.09,North,0,21.0,27.0,100,0.00,,,0.00,VWS V14.01,2013-04-10 15:17:00,
2013-04-10 10:22:00,23.5,23.5,30.09,North,359,20.0,24.0,100,0.00,,,0.00,VWS V14.01,2013-04-10 15:22:00,
2013-04-10 10:27:00,23.5,23.5,30.09,North,359,20.0,24.0,100,0.00,,,0.00,VWS V14.01,2013-04-10 15:27:00,
2013-04-10 10:30:00,22.7,22.7,30.10,North,350,14.0,25.0,100,0.00,,,0.00,VWS V14.01,2013-04-10 15:30:00,
2013-04-10 10:32:00,23.5,23.5,30.09,NNW,342,12.0,24.0,100,0.00,,,0.00,VWS V14.01,2013-04-10 15:32:00,
2013-04-10 10:37:00,23.5,23.5,30.09,North,359,9.0,24.0,100,0.00,,,0.00,VWS V14.01,2013-04-10 15:37:00,
2013-04-10 10:42:00,23.5,23.5,30.09,North,352,14.0,24.0,100,0.00,,,0.00,VWS V14.01,2013-04-10 15:42:00,
2013-04-10 10:45:00,23.0,23.0,30.09,North,352,17.0,27.0,100,0.00,,,0.00,VWS V14.01,2013-04-10 15:45:00,
2013-04-10 10:47:00,23.6,23.6,30.11,North,354,13.0,24.0,100,0.00,,,0.00,VWS V14.01,2013-04-10 15:47:00,
2013-04-10 10:52:00,23.5,23.5,30.11,North,0,21.0,24.0,100,0.00,,,0.00,VWS V14.01,2013-04-10 15:52:00,
2013-04-10 10:57:00,23.6,23.6,30.11,NW,325,5.0,24.0,100,0.00,,,0.00,VWS V14.01,2013-04-10 15:57:00,
2013-04-10 11:00:00,22.5,22.5,30.10,North,359,21.0,26.0,100,0.00,,,0.00,VWS V14.01,2013-04-10 16:00:00,
2013-04-10 11:02:00,23.6,23.6,30.11,North,0,12.0,24.0,100,0.00,,,0.00,VWS V14.01,2013-04-10 16:02:00,
2013-04-10 11:07:00,23.9,23.9,30.11,North,359,19.0,20.0,100,0.00,,,0.00,VWS V14.01,2013-04-10 16:07:00,
2013-04-10 11:12:00,24.2,24.2,30.11,NNW,336,11.0,20.0,100,0.00,,,0.00,VWS V14.01,2013-04-10 16:12:00,
2013-04-10 11:15:00,23.6,23.6,30.09,North,0,19.0,27.0,100,0.00,,,0.00,VWS V14.01,2013-04-10 16:15:00,
2013-04-10 11:17:00,24.1,24.1,30.10,North,0,10.0,10.0,100,0.00,,,0.00,VWS V14.01,2013-04-10 16:17:00,
2013-04-10 11:22:00,24.2,24.2,30.10,North,1,17.0,22.0,100,0.00,,,0.00,VWS V14.01,2013-04-10 16:22:00,
2013-04-10 11:27:00,24.4,24.4,30.10,North,359,18.0,22.0,100,0.00,,,0.00,VWS V14.01,2013-04-10 16:27:00,
2013-04-10 11:30:00,23.5,23.5,30.09,North,349,11.0,24.0,100,0.00,,,0.00,VWS V14.01,2013-04-10 16:30:00,
2013-04-10 11:32:00,24.1,24.1,30.09,North,356,14.0,19.0,100,0.00,,,0.00,VWS V14.01,2013-04-10 16:32:00,
2013-04-10 11:37:00,24.2,24.2,30.09,North,359,12.0,20.0,100,0.00,,,0.00,VWS V14.01,2013-04-10 16:37:00,
2013-04-10 11:42:00,24.5,24.5,30.09,North,0,20.0,21.0,100,0.00,,,0.00,VWS V14.01,2013-04-10 16:42:00,
2013-04-10 11:45:00,23.6,23.6,30.11,North,353,11.0,24.0,100,0.00,,,0.00,VWS V14.01,2013-04-10 16:45:00,
2013-04-10 11:47:00,24.2,24.2,30.10,North,357,14.0,15.0,100,0.00,,,0.00,VWS V14.01,2013-04-10 16:47:00,
2013-04-10 11:52:00,24.5,24.5,30.10,North,359,16.0,26.0,100,0.00,,,0.00,VWS V14.01,2013-04-10 16:52:00,
2013-04-10 11:57:00,24.7,24.7,30.10,North,353,20.0,26.0,100,0.00,,,0.00,VWS V14.01,2013-04-10 16:57:00,
2013-04-10 12:00:00,23.6,23.6,30.11,NNW,342,11.0,24.0,100,0.00,,,0.00,VWS V14.01,2013-04-10 17:00:00,
2013-04-10 12:02:00,24.8,24.8,30.09,North,359,13.0,22.0,100,0.00,,,0.00,VWS V14.01,2013-04-10 17:02:00,
2013-04-10 12:07:00,25.1,25.1,30.09,North,0,22.0,26.0,100,0.00,,,0.00,VWS V14.01,2013-04-10 17:07:00,
2013-04-10 12:12:00,25.0,25.0,30.09,NNE,14,17.0,27.0,100,0.00,,,0.00,VWS V14.01,2013-04-10 17:12:00,
2013-04-10 12:15:00,24.2,24.2,30.10,North,359,7.0,22.0,100,0.00,,,0.00,VWS V14.01,2013-04-10 17:15:00,
2013-04-10 12:18:00,25.0,25.0,30.08,North,357,18.0,25.0,100,0.00,,,0.00,VWS V14.01,2013-04-10 17:18:00,
2013-04-10 12:23:00,25.3,25.3,30.08,North,356,16.0,26.0,100,0.00,,,0.00,VWS V14.01,2013-04-10 17:23:00,
2013-04-10 12:28:00,25.0,25.0,30.08,North,8,17.0,26.0,100,0.00,,,0.00,VWS V14.01,2013-04-10 17:28:00,
2013-04-10 12:30:00,24.1,24.1,30.09,North,0,19.0,24.0,100,0.00,,,0.00,VWS V14.01,2013-04-10 17:30:00,
2013-04-10 12:33:00,25.1,25.1,30.08,North,359,21.0,24.0,100,0.00,,,0.00,VWS V14.01,2013-04-10 17:33:00,
2013-04-10 12:38:00,25.3,25.3,30.08,North,356,17.0,25.0,100,0.00,,,0.00,VWS V14.01,2013-04-10 17:38:00,
2013-04-10 12:43:00,25.1,25.1,30.08,North,0,17.0,25.0,100,0.00,,,0.00,VWS V14.01,2013-04-10 17:43:00,
2013-04-10 12:45:00,24.1,24.1,30.10,North,359,13.0,22.0,100,0.00,,,0.00,VWS V14.01,2013-04-10 17:45:00,
2013-04-10 12:48:00,25.3,25.3,30.08,North,7,17.0,22.0,100,0.00,,,0.00,VWS V14.01,2013-04-10 17:48:00,
2013-04-10 12:53:00,25.3,25.3,30.08,North,359,25.0,25.0,100,0.00,,,0.00,VWS V14.01,2013-04-10 17:53:00,
2013-04-10 12:58:00,25.4,25.4,30.08,North,349,13.0,26.0,100,0.00,,,0.00,VWS V14.01,2013-04-10 17:58:00,
2013-04-10 13:00:00,24.7,24.7,30.09,North,359,20.0,27.0,100,0.00,,,0.00,VWS V14.01,2013-04-10 18:00:00,
2013-04-10 13:03:00,25.3,25.3,30.07,NNW,344,12.0,24.0,100,0.00,,,0.00,VWS V14.01,2013-04-10 18:03:00,
2013-04-10 13:08:00,25.3,25.3,30.07,North,354,22.0,25.0,100,0.00,,,0.00,VWS V14.01,2013-04-10 18:08:00,
2013-04-10 13:13:00,25.3,25.3,30.07,NNW,343,20.0,26.0,100,0.00,,,0.00,VWS V14.01,2013-04-10 18:13:00,
2013-04-10 13:15:00,24.8,24.8,30.08,North,0,25.0,27.0,100,0.00,,,0.00,VWS V14.01,2013-04-10 18:15:00,
2013-04-10 13:18:00,25.6,25.6,30.07,North,349,19.0,19.0,100,0.00,,,0.00,VWS V14.01,2013-04-10 18:18:00,
2013-04-10 13:23:00,25.4,25.4,30.07,North,353,19.0,22.0,100,0.00,,,0.00,VWS V14.01,2013-04-10 18:23:00,
2013-04-10 13:28:00,25.6,25.6,30.07,North,359,20.0,24.0,100,0.00,,,0.00,VWS V14.01,2013-04-10 18:28:00,
2013-04-10 13:30:00,25.1,25.1,30.08,North,0,17.0,26.0,100,0.00,,,0.00,VWS V14.01,2013-04-10 18:30:00,
2013-04-10 13:33:00,25.3,25.3,30.07,NNW,339,12.0,19.0,100,0.00,,,0.00,VWS V14.01,2013-04-10 18:33:00,
2013-04-10 13:38:00,25.3,25.3,30.07,North,359,20.0,21.0,100,0.00,,,0.00,VWS V14.01,2013-04-10 18:38:00,
2013-04-10 13:43:00,25.4,25.4,30.07,North,353,20.0,28.0,100,0.00,,,0.00,VWS V14.01,2013-04-10 18:43:00,
2013-04-10 13:45:00,25.3,25.3,30.08,North,359,22.0,26.0,100,0.00,,,0.00,VWS V14.01,2013-04-10 18:45:00,
2013-04-10 13:48:00,25.7,25.7,30.05,North,7,14.0,19.0,100,0.00,,,0.00,VWS V14.01,2013-04-10 18:48:00,
2013-04-10 13:53:00,26.0,26.0,30.05,North,352,18.0,22.0,100,0.00,,,0.00,VWS V14.01,2013-04-10 18:53:00,
2013-04-10 13:58:00,25.8,25.8,30.05,NNW,342,17.0,26.0,100,0.00,,,0.00,VWS V14.01,2013-04-10 18:58:00,
2013-04-10 14:00:00,25.1,25.1,30.07,North,356,24.0,27.0,100,0.00,,,0.00,VWS V14.01,2013-04-10 19:00:00,
2013-04-10 14:03:00,25.3,25.3,30.05,North,354,19.0,21.0,100,0.00,,,0.00,VWS V14.01,2013-04-10 19:03:00,
2013-04-10 14:08:00,25.6,25.6,30.05,North,359,19.0,24.0,100,0.00,,,0.00,VWS V14.01,2013-04-10 19:08:00,
2013-04-10 14:13:00,25.6,25.6,30.05,North,353,20.0,24.0,100,0.00,,,0.00,VWS V14.01,2013-04-10 19:13:00,
2013-04-10 14:15:00,25.4,25.4,30.07,North,359,19.0,30.0,100,0.00,,,0.00,VWS V14.01,2013-04-10 19:15:00,
2013-04-10 14:18:00,25.6,25.6,30.04,North,359,22.0,26.0,100,0.00,,,0.00,VWS V14.01,2013-04-10 19:18:00,
2013-04-10 14:23:00,25.8,25.8,30.04,North,349,20.0,26.0,100,0.00,,,0.00,VWS V14.01,2013-04-10 19:23:00,
2013-04-10 14:28:00,25.4,25.4,30.04,North,359,19.0,26.0,100,0.00,,,0.00,VWS V14.01,2013-04-10 19:28:00,
2013-04-10 14:30:00,25.1,25.1,30.07,NNW,335,12.0,24.0,100,0.00,,,0.00,VWS V14.01,2013-04-10 19:30:00,
2013-04-10 14:33:00,25.7,25.7,30.05,North,0,26.0,26.0,100,0.00,,,0.00,VWS V14.01,2013-04-10 19:33:00,
2013-04-10 14:38:00,25.8,25.8,30.05,North,10,16.0,26.0,100,0.00,,,0.00,VWS V14.01,2013-04-10 19:38:00,
2013-04-10 14:43:00,25.3,25.3,30.05,North,359,18.0,26.0,100,0.00,,,0.00,VWS V14.01,2013-04-10 19:43:00,
2013-04-10 14:45:00,25.6,25.6,30.05,North,354,18.0,28.0,100,0.00,,,0.00,VWS V14.01,2013-04-10 19:45:00,
2013-04-10 14:48:00,25.6,25.6,30.05,North,359,17.0,20.0,100,0.00,,,0.00,VWS V14.01,2013-04-10 19:48:00,
2013-04-10 14:53:00,25.8,25.8,30.05,North,0,18.0,24.0,100,0.00,,,0.00,VWS V14.01,2013-04-10 19:53:00,
2013-04-10 14:58:00,26.0,26.0,30.05,North,4,12.0,24.0,100,0.00,,,0.00,VWS V14.01,2013-04-10 19:58:00,
2013-04-10 15:00:00,25.1,25.1,30.05,North,349,19.0,26.0,100,0.00,,,0.00,VWS V14.01,2013-04-10 20:00:00,
2013-04-10 15:03:00,26.0,26.0,30.05,North,4,17.0,20.0,100,0.00,,,0.00,VWS V14.01,2013-04-10 20:03:00,
2013-04-10 15:08:00,26.0,26.0,30.05,North,11,13.0,21.0,100,0.00,,,0.00,VWS V14.01,2013-04-10 20:08:00,
2013-04-10 15:13:00,26.0,26.0,30.05,North,359,17.0,22.0,100,0.00,,,0.00,VWS V14.01,2013-04-10 20:13:00,
2013-04-10 15:15:00,26.0,26.0,30.04,North,356,19.0,25.0,100,0.00,,,0.00,VWS V14.01,2013-04-10 20:15:00,
2013-04-10 15:18:00,26.3,26.3,30.04,North,357,19.0,19.0,100,0.00,,,0.00,VWS V14.01,2013-04-10 20:18:00,
2013-04-10 15:23:00,26.1,26.1,30.04,North,359,17.0,19.0,100,0.00,,,0.00,VWS V14.01,2013-04-10 20:23:00,
2013-04-10 15:28:00,26.3,26.3,30.04,North,353,19.0,26.0,100,0.00,,,0.00,VWS V14.01,2013-04-10 20:28:00,
2013-04-10 15:30:00,25.4,25.4,30.05,North,0,19.0,26.0,100,0.00,,,0.00,VWS V14.01,2013-04-10 20:30:00,
2013-04-10 15:33:00,26.1,26.1,30.02,North,357,19.0,20.0,100,0.00,,,0.00,VWS V14.01,2013-04-10 20:33:00,
2013-04-10 15:38:00,26.1,26.1,30.02,North,0,17.0,25.0,100,0.00,,,0.00,VWS V14.01,2013-04-10 20:38:00,
2013-04-10 15:43:00,26.0,26.0,30.02,North,359,17.0,25.0,100,0.00,,,0.00,VWS V14.01,2013-04-10 20:43:00,
2013-04-10 15:45:00,25.6,25.6,30.05,North,350,17.0,26.0,100,0.00,,,0.00,VWS V14.01,2013-04-10 20:45:00,
2013-04-10 15:48:00,26.0,26.0,30.00,North,353,22.0,24.0,100,0.00,,,0.00,VWS V14.01,2013-04-10 20:48:00,
2013-04-10 15:53:00,26.1,26.1,30.00,North,0,25.0,26.0,100,0.00,,,0.00,VWS V14.01,2013-04-10 20:53:00,
2013-04-10 15:58:00,26.0,26.0,30.00,North,359,15.0,26.0,100,0.00,,,0.00,VWS V14.01,2013-04-10 20:58:00,
2013-04-10 16:00:00,26.0,26.0,30.05,NNE,23,18.0,24.0,100,0.00,,,0.00,VWS V14.01,2013-04-10 21:00:00,
2013-04-10 16:03:00,26.1,26.1,30.00,North,353,16.0,22.0,100,0.00,,,0.00,VWS V14.01,2013-04-10 21:03:00,
2013-04-10 16:08:00,26.4,26.4,30.00,North,354,24.0,27.0,100,0.00,,,0.00,VWS V14.01,2013-04-10 21:08:00,
2013-04-10 16:13:00,26.4,26.4,30.00,North,352,17.0,27.0,100,0.00,,,0.00,VWS V14.01,2013-04-10 21:13:00,
2013-04-10 16:15:00,26.3,26.3,30.04,North,353,17.0,22.0,100,0.00,,,0.00,VWS V14.01,2013-04-10 21:15:00,
2013-04-10 16:18:00,26.4,26.4,30.00,North,356,19.0,21.0,100,0.00,,,0.00,VWS V14.01,2013-04-10 21:18:00,
2013-04-10 16:23:00,26.1,26.1,30.00,North,3,22.0,26.0,100,0.00,,,0.00,VWS V14.01,2013-04-10 21:23:00,
2013-04-10 16:28:00,26.3,26.3,30.00,North,353,12.0,28.0,100,0.00,,,0.00,VWS V14.01,2013-04-10 21:28:00,
2013-04-10 16:30:00,26.1,26.1,30.02,North,354,13.0,26.0,100,0.00,,,0.00,VWS V14.01,2013-04-10 21:30:00,
2013-04-10 16:34:00,26.0,26.0,30.00,North,354,17.0,26.0,100,0.00,,,0.00,VWS V14.01,2013-04-10 21:34:00,
2013-04-10 16:39:00,26.1,26.1,30.00,NNW,333,14.0,26.0,100,0.00,,,0.00,VWS V14.01,2013-04-10 21:39:00,
2013-04-10 16:44:00,26.4,26.4,30.00,North,352,15.0,26.0,100,0.00,,,0.00,VWS V14.01,2013-04-10 21:44:00,
2013-04-10 16:45:00,25.8,25.8,30.00,North,352,19.0,25.0,100,0.00,,,0.00,VWS V14.01,2013-04-10 21:45:00,
2013-04-10 16:49:00,26.3,26.3,30.00,North,359,19.0,24.0,100,0.00,,,0.00,VWS V14.01,2013-04-10 21:49:00,
2013-04-10 16:54:00,26.3,26.3,30.00,North,349,10.0,25.0,100,0.00,,,0.00,VWS V14.01,2013-04-10 21:54:00,
2013-04-10 16:59:00,26.4,26.4,30.00,North,359,18.0,25.0,100,0.00,,,0.00,VWS V14.01,2013-04-10 21:59:00,
2013-04-10 17:00:00,26.4,26.4,30.00,NNE,20,16.0,26.0,100,0.00,,,0.00,VWS V14.01,2013-04-10 22:00:00,
2013-04-10 17:03:00,26.1,26.1,29.99,North,359,12.0,21.0,100,0.00,,,0.00,VWS V14.01,2013-04-10 22:03:00,
2013-04-10 17:08:00,26.1,26.1,29.99,North,359,17.0,24.0,100,0.00,,,0.00,VWS V14.01,2013-04-10 22:08:00,
2013-04-10 17:13:00,26.0,26.0,29.99,North,359,14.0,24.0,100,0.00,,,0.00,VWS V14.01,2013-04-10 22:13:00,
2013-04-10 17:15:00,26.3,26.3,30.00,North,356,17.0,27.0,100,0.00,,,0.00,VWS V14.01,2013-04-10 22:15:00,
2013-04-10 17:18:00,26.3,26.3,29.98,NNW,344,14.0,21.0,100,0.00,,,0.00,VWS V14.01,2013-04-10 22:18:00,
2013-04-10 17:23:00,26.4,26.4,29.98,North,359,19.0,27.0,100,0.00,,,0.00,VWS V14.01,2013-04-10 22:23:00,
2013-04-10 17:28:00,26.7,26.7,29.98,North,0,21.0,27.0,100,0.00,,,0.00,VWS V14.01,2013-04-10 22:28:00,
2013-04-10 17:30:00,26.1,26.1,30.00,North,353,16.0,28.0,100,0.00,,,0.00,VWS V14.01,2013-04-10 22:30:00,
2013-04-10 17:34:00,26.7,26.7,29.96,NNW,328,14.0,22.0,100,0.00,,,0.00,VWS V14.01,2013-04-10 22:34:00,
2013-04-10 17:39:00,26.7,26.7,29.96,NNW,347,13.0,27.0,100,0.00,,,0.00,VWS V14.01,2013-04-10 22:39:00,
2013-04-10 17:44:00,27.0,27.0,29.96,NNW,342,13.0,28.0,100,0.00,,,0.00,VWS V14.01,2013-04-10 22:44:00,
2013-04-10 17:45:00,26.7,26.7,30.00,North,359,17.0,26.0,100,0.00,,,0.00,VWS V14.01,2013-04-10 22:45:00,
2013-04-10 17:49:00,27.0,27.0,29.96,North,352,22.0,24.0,100,0.00,,,0.00,VWS V14.01,2013-04-10 22:49:00,
2013-04-10 17:54:00,26.9,26.9,29.96,North,354,24.0,24.0,100,0.00,,,0.00,VWS V14.01,2013-04-10 22:54:00,
2013-04-10 17:59:00,26.7,26.7,29.96,North,353,16.0,24.0,100,0.00,,,0.00,VWS V14.01,2013-04-10 22:59:00,
2013-04-10 18:00:00,26.3,26.3,29.99,North,359,14.0,25.0,100,0.00,,,0.00,VWS V14.01,2013-04-10 23:00:00,
2013-04-10 18:04:00,26.4,26.4,29.96,NNW,347,13.0,19.0,100,0.00,,,0.00,VWS V14.01,2013-04-10 23:04:00,
2013-04-10 18:09:00,26.7,26.7,29.96,NNW,328,10.0,24.0,100,0.00,,,0.00,VWS V14.01,2013-04-10 23:09:00,
2013-04-10 18:14:00,26.4,26.4,29.96,North,357,19.0,25.0,100,0.00,,,0.00,VWS V14.01,2013-04-10 23:14:00,
2013-04-10 18:15:00,26.0,26.0,29.98,North,0,21.0,24.0,100,0.00,,,0.00,VWS V14.01,2013-04-10 23:15:00,
2013-04-10 18:19:00,26.6,26.6,29.97,North,352,17.0,20.0,100,0.00,,,0.00,VWS V14.01,2013-04-10 23:19:00,
2013-04-10 18:24:00,26.9,26.9,29.97,North,359,18.0,28.0,100,0.00,,,0.00,VWS V14.01,2013-04-10 23:24:00,
2013-04-10 18:29:00,26.9,26.9,29.97,North,353,17.0,28.0,100,0.00,,,0.00,VWS V14.01,2013-04-10 23:29:00,
2013-04-10 18:30:00,26.4,26.4,29.96,North,353,20.0,27.0,100,0.00,,,0.00,VWS V14.01,2013-04-10 23:30:00,
2013-04-10 18:34:00,26.9,26.9,29.98,North,359,10.0,22.0,100,0.00,,,0.00,VWS V14.01,2013-04-10 23:34:00,
2013-04-10 18:39:00,26.9,26.9,29.98,North,353,14.0,22.0,100,0.00,,,0.00,VWS V14.01,2013-04-10 23:39:00,
2013-04-10 18:44:00,27.2,27.2,29.98,North,359,17.0,24.0,100,0.00,,,0.00,VWS V14.01,2013-04-10 23:44:00,
2013-04-10 18:45:00,27.0,27.0,29.96,North,359,19.0,31.0,100,0.00,,,0.00,VWS V14.01,2013-04-10 23:45:00,
2013-04-10 18:49:00,26.9,26.9,29.98,North,354,21.0,21.0,100,0.00,,,0.00,VWS V14.01,2013-04-10 23:49:00,
2013-04-10 18:54:00,27.2,27.2,29.98,North,359,21.0,24.0,100,0.00,,,0.00,VWS V14.01,2013-04-10 23:54:00,
2013-04-10 18:59:00,27.2,27.2,29.98,North,353,17.0,25.0,100,0.00,,,0.00,VWS V14.01,2013-04-10 23:59:00,
2013-04-10 19:00:00,26.4,26.4,29.96,North,356,19.0,24.0,100,0.00,,,0.00,VWS V14.01,2013-04-11 00:00:00,
2013-04-10 19:04:00,27.0,27.0,29.98,North,349,15.0,21.0,100,0.00,,,0.00,VWS V14.01,2013-04-11 00:04:00,
2013-04-10 19:09:00,27.2,27.2,29.98,North,359,16.0,26.0,100,0.00,,,0.00,VWS V14.01,2013-04-11 00:09:00,
2013-04-10 19:14:00,27.3,27.3,29.98,North,3,14.0,26.0,100,0.00,,,0.00,VWS V14.01,2013-04-11 00:14:00,
2013-04-10 19:15:00,26.6,26.6,29.97,NNW,342,14.0,25.0,100,0.00,,,0.00,VWS V14.01,2013-04-11 00:15:00,
2013-04-10 19:19:00,26.9,26.9,29.98,North,0,19.0,22.0,100,0.00,,,0.00,VWS V14.01,2013-04-11 00:19:00,
2013-04-10 19:24:00,27.2,27.2,29.98,North,350,14.0,22.0,100,0.00,,,0.00,VWS V14.01,2013-04-11 00:24:00,
2013-04-10 19:29:00,27.2,27.2,29.98,North,354,17.0,22.0,100,0.00,,,0.00,VWS V14.01,2013-04-11 00:29:00,
2013-04-10 19:30:00,26.7,26.7,29.98,North,357,21.0,28.0,100,0.00,,,0.00,VWS V14.01,2013-04-11 00:30:00,
2013-04-10 19:34:00,27.3,27.3,29.97,North,359,17.0,24.0,100,0.00,,,0.00,VWS V14.01,2013-04-11 00:34:00,
2013-04-10 19:39:00,27.3,27.3,29.97,North,349,19.0,24.0,100,0.00,,,0.00,VWS V14.01,2013-04-11 00:39:00,
2013-04-10 19:44:00,27.2,27.2,29.97,NNE,18,13.0,26.0,100,0.00,,,0.00,VWS V14.01,2013-04-11 00:44:00,
2013-04-10 19:45:00,27.0,27.0,29.98,North,0,16.0,25.0,100,0.00,,,0.00,VWS V14.01,2013-04-11 00:45:00,
2013-04-10 19:49:00,27.0,27.0,29.97,North,359,16.0,22.0,100,0.00,,,0.00,VWS V14.01,2013-04-11 00:49:00,
2013-04-10 19:54:00,26.9,26.9,29.97,North,0,17.0,22.0,100,0.00,,,0.00,VWS V14.01,2013-04-11 00:54:00,
2013-04-10 19:59:00,27.2,27.2,29.97,NNW,344,21.0,22.0,100,0.00,,,0.00,VWS V14.01,2013-04-11 00:59:00,
2013-04-10 20:00:00,27.0,27.0,29.98,North,0,21.0,25.0,100,0.00,,,0.00,VWS V14.01,2013-04-11 01:00:00,
2013-04-10 20:04:00,26.9,26.9,29.97,NNE,28,13.0,21.0,100,0.00,,,0.00,VWS V14.01,2013-04-11 01:04:00,
2013-04-10 20:09:00,26.9,26.9,29.97,North,359,19.0,24.0,100,0.00,,,0.00,VWS V14.01,2013-04-11 01:09:00,
2013-04-10 20:14:00,26.9,26.9,29.97,NNW,346,19.0,24.0,100,0.00,,,0.00,VWS V14.01,2013-04-11 01:14:00,
2013-04-10 20:15:00,27.2,27.2,29.98,North,353,18.0,26.0,100,0.00,,,0.00,VWS V14.01,2013-04-11 01:15:00,
2013-04-10 20:19:00,26.6,26.6,29.96,North,359,14.0,24.0,100,0.00,,,0.00,VWS V14.01,2013-04-11 01:19:00,
2013-04-10 20:24:00,26.6,26.6,29.96,North,359,17.0,24.0,100,0.00,,,0.00,VWS V14.01,2013-04-11 01:24:00,
2013-04-10 20:29:00,26.7,26.7,29.96,North,352,17.0,25.0,100,0.00,,,0.00,VWS V14.01,2013-04-11 01:29:00,
2013-04-10 20:30:00,27.5,27.5,29.97,North,352,15.0,22.0,100,0.00,,,0.00,VWS V14.01,2013-04-11 01:30:00,
2013-04-10 20:34:00,26.7,26.7,29.96,North,0,14.0,21.0,100,0.00,,,0.00,VWS V14.01,2013-04-11 01:34:00,
2013-04-10 20:39:00,26.4,26.4,29.96,North,0,14.0,24.0,100,0.00,,,0.00,VWS V14.01,2013-04-11 01:39:00,
2013-04-10 20:44:00,26.3,26.3,29.96,North,359,13.0,24.0,100,0.00,,,0.00,VWS V14.01,2013-04-11 01:44:00,
2013-04-10 20:45:00,27.2,27.2,29.97,North,352,21.0,26.0,100,0.00,,,0.00,VWS V14.01,2013-04-11 01:45:00,
2013-04-10 20:49:00,26.3,26.3,29.98,NNW,343,16.0,20.0,100,0.00,,,0.00,VWS V14.01,2013-04-11 01:49:00,
2013-04-10 20:54:00,26.3,26.3,29.98,North,353,10.0,20.0,100,0.00,,,0.00,VWS V14.01,2013-04-11 01:54:00,
2013-04-10 20:59:00,26.1,26.1,29.98,North,0,17.0,20.0,100,0.00,,,0.00,VWS V14.01,2013-04-11 01:59:00,
2013-04-10 21:00:00,26.6,26.6,29.97,North,353,21.0,25.0,100,0.00,,,0.00,VWS V14.01,2013-04-11 02:00:00,
2013-04-10 21:04:00,26.1,26.1,29.98,NNW,342,16.0,16.0,100,0.00,,,0.00,VWS V14.01,2013-04-11 02:04:00,
2013-04-10 21:09:00,26.1,26.1,29.98,North,356,9.0,19.0,100,0.00,,,0.00,VWS V14.01,2013-04-11 02:09:00,
2013-04-10 21:14:00,25.8,25.8,29.98,NNW,332,12.0,19.0,100,0.00,,,0.00,VWS V14.01,2013-04-11 02:14:00,
2013-04-10 21:15:00,26.4,26.4,29.96,North,359,18.0,25.0,100,0.00,,,0.00,VWS V14.01,2013-04-11 02:15:00,
2013-04-10 21:19:00,25.6,25.6,29.99,NNW,342,8.0,13.0,100,0.00,,,0.00,VWS V14.01,2013-04-11 02:19:00,
2013-04-10 21:24:00,25.7,25.7,29.99,NNW,340,6.0,18.0,100,0.00,,,0.00,VWS V14.01,2013-04-11 02:24:00,
2013-04-10 21:29:00,25.7,25.7,29.99,NNW,342,11.0,18.0,100,0.00,,,0.00,VWS V14.01,2013-04-11 02:29:00,
2013-04-10 21:30:00,26.6,26.6,29.96,North,354,19.0,25.0,100,0.00,,,0.00,VWS V14.01,2013-04-11 02:30:00,
2013-04-10 21:34:00,26.0,26.0,29.99,North,349,17.0,22.0,100,0.00,,,0.00,VWS V14.01,2013-04-11 02:34:00,
2013-04-10 21:39:00,26.3,26.3,29.99,North,352,19.0,24.0,100,0.00,,,0.00,VWS V14.01,2013-04-11 02:39:00,
2013-04-10 21:44:00,26.0,26.0,29.99,North,352,14.0,24.0,100,0.00,,,0.00,VWS V14.01,2013-04-11 02:44:00,
2013-04-10 21:45:00,26.3,26.3,29.98,North,359,16.0,24.0,100,0.00,,,0.00,VWS V14.01,2013-04-11 02:45:00,
2013-04-10 21:49:00,26.0,26.0,29.99,North,353,14.0,14.0,100,0.00,,,0.00,VWS V14.01,2013-04-11 02:49:00,
2013-04-10 21:54:00,25.8,25.8,29.99,North,353,13.0,18.0,100,0.00,,,0.00,VWS V14.01,2013-04-11 02:54:00,
2013-04-10 21:59:00,25.7,25.7,29.99,North,353,10.0,18.0,100,0.00,,,0.00,VWS V14.01,2013-04-11 02:59:00,
2013-04-10 22:00:00,26.3,26.3,29.98,NNW,342,13.0,20.0,100,0.00,,,0.00,VWS V14.01,2013-04-11 03:00:00,
2013-04-10 22:04:00,25.6,25.6,29.99,North,357,13.0,14.0,100,0.00,,,0.00,VWS V14.01,2013-04-11 03:04:00,
2013-04-10 22:09:00,25.8,25.8,29.99,North,0,13.0,19.0,100,0.00,,,0.00,VWS V14.01,2013-04-11 03:09:00,
2013-04-10 22:14:00,26.0,26.0,29.99,North,0,12.0,21.0,100,0.00,,,0.00,VWS V14.01,2013-04-11 03:14:00,
2013-04-10 22:15:00,25.7,25.7,29.99,NNW,342,7.0,19.0,100,0.00,,,0.00,VWS V14.01,2013-04-11 03:15:00,
2013-04-10 22:19:00,25.7,25.7,29.98,North,359,12.0,20.0,100,0.00,,,0.00,VWS V14.01,2013-04-11 03:19:00,
2013-04-10 22:24:00,25.7,25.7,29.98,NNW,335,16.0,22.0,100,0.00,,,0.00,VWS V14.01,2013-04-11 03:24:00,
2013-04-10 22:29:00,25.6,25.6,29.98,North,357,9.0,22.0,100,0.00,,,0.00,VWS V14.01,2013-04-11 03:29:00,
2013-04-10 22:30:00,26.0,26.0,29.99,North,356,19.0,24.0,100,0.00,,,0.00,VWS V14.01,2013-04-11 03:30:00,
2013-04-10 22:34:00,25.6,25.6,29.98,North,353,12.0,17.0,100,0.00,,,0.00,VWS V14.01,2013-04-11 03:34:00,
2013-04-10 22:39:00,25.4,25.4,29.98,North,353,11.0,17.0,100,0.00,,,0.00,VWS V14.01,2013-04-11 03:39:00,
2013-04-10 22:44:00,25.4,25.4,29.98,North,357,12.0,17.0,100,0.00,,,0.00,VWS V14.01,2013-04-11 03:44:00,
2013-04-10 22:45:00,26.1,26.1,29.99,North,352,7.0,24.0,100,0.00,,,0.00,VWS V14.01,2013-04-11 03:45:00,
2013-04-10 22:49:00,25.4,25.4,29.98,NNW,347,8.0,13.0,100,0.00,,,0.00,VWS V14.01,2013-04-11 03:49:00,
2013-04-10 22:54:00,25.3,25.3,29.98,NNW,347,7.0,13.0,100,0.00,,,0.00,VWS V14.01,2013-04-11 03:54:00,
2013-04-10 22:59:00,25.3,25.3,29.98,North,1,10.0,14.0,100,0.00,,,0.00,VWS V14.01,2013-04-11 03:59:00,
2013-04-10 23:00:00,25.3,25.3,29.98,NW,323,7.0,14.0,100,0.00,,,0.00,VWS V14.01,2013-04-11 04:00:00,
2013-04-10 23:05:00,25.1,25.1,29.98,NNW,340,8.0,9.0,100,0.00,,,0.00,VWS V14.01,2013-04-11 04:05:00,
2013-04-10 23:10:00,25.0,25.0,29.98,NW,325,7.0,12.0,100,0.00,,,0.00,VWS V14.01,2013-04-11 04:10:00,
2013-04-10 23:15:00,25.0,25.0,29.98,NNW,329,5.0,12.0,100,0.00,,,0.00,VWS V14.01,2013-04-11 04:15:00,
2013-04-10 23:20:00,25.0,25.0,29.97,NNW,332,7.0,10.0,100,0.00,,,0.00,VWS V14.01,2013-04-11 04:20:00,
2013-04-10 23:25:00,25.0,25.0,29.97,North,357,5.0,10.0,100,0.00,,,0.00,VWS V14.01,2013-04-11 04:25:00,
2013-04-10 23:30:00,25.0,25.0,29.97,NW,322,6.0,10.0,100,0.00,,,0.00,VWS V14.01,2013-04-11 04:30:00,
2013-04-10 23:35:00,24.8,24.8,29.97,NNW,330,5.0,10.0,100,0.00,,,0.00,VWS V14.01,2013-04-11 04:35:00,
2013-04-10 23:40:00,24.7,24.7,29.97,North,353,9.0,10.0,100,0.00,,,0.00,VWS V14.01,2013-04-11 04:40:00,
2013-04-10 23:45:00,24.7,24.7,29.97,NNW,333,3.0,10.0,100,0.00,,,0.00,VWS V14.01,2013-04-11 04:45:00,
2013-04-10 23:50:00,24.5,24.5,29.97,NW,308,4.0,6.0,100,0.00,,,0.00,VWS V14.01,2013-04-11 04:50:00,
2013-04-10 23:55:00,24.5,24.5,29.97,NW,322,3.0,8.0,100,0.00,,,0.00,VWS V14.01,2013-04-11 04:55:00,